sensor_id;sensor_type;location;lat;lon;timestamp;P1;durP1;ratioP1;P2;durP2;ratioP2
9767;SDS011;4923;52.520;13.494;2023-07-02T00:00:21;1.80;;;0.87;;
9767;SDS011;4923;52.520;13.494;2023-07-02T00:03:08;0.90;;;0.90;;
9767;SDS011;4923;52.520;13.494;2023-07-02T00:05:56;0.67;;;0.67;;
9767;SDS011;4923;52.520;13.494;2023-07-02T00:08:43;1.23;;;1.00;;
9767;SDS011;4923;52.520;13.494;2023-07-02T00:11:29;0.90;;;0.90;;
9767;SDS011;4923;52.520;13.494;2023-07-02T00:14:17;1.07;;;0.70;;
9767;SDS011;4923;52.520;13.494;2023-07-02T00:17:04;2.83;;;0.70;;
9767;SDS011;4923;52.520;13.494;2023-07-02T00:19:52;0.73;;;0.73;;
9767;SDS011;4923;52.520;13.494;2023-07-02T00:22:39;0.90;;;0.90;;
9767;SDS011;4923;52.520;13.494;2023-07-02T00:25:30;1.90;;;0.80;;
9767;SDS011;4923;52.520;13.494;2023-07-02T00:28:17;1.00;;;1.00;;
9767;SDS011;4923;52.520;13.494;2023-07-02T00:31:05;1.00;;;1.00;;
9767;SDS011;4923;52.520;13.494;2023-07-02T00:33:53;1.40;;;1.10;;
9767;SDS011;4923;52.520;13.494;2023-07-02T00:36:40;1.13;;;1.13;;
9767;SDS011;4923;52.520;13.494;2023-07-02T00:39:28;1.33;;;1.10;;
9767;SDS011;4923;52.520;13.494;2023-07-02T00:42:14;1.80;;;0.70;;
9767;SDS011;4923;52.520;13.494;2023-07-02T00:45:02;1.27;;;1.10;;
9767;SDS011;4923;52.520;13.494;2023-07-02T00:47:50;1.40;;;1.10;;
9767;SDS011;4923;52.520;13.494;2023-07-02T00:50:37;2.63;;;1.07;;
9767;SDS011;4923;52.520;13.494;2023-07-02T00:53:25;1.47;;;1.47;;
9767;SDS011;4923;52.520;13.494;2023-07-02T00:56:12;1.30;;;1.20;;
9767;SDS011;4923;52.520;13.494;2023-07-02T00:59:00;1.77;;;1.47;;
9767;SDS011;4923;52.520;13.494;2023-07-02T01:01:47;1.80;;;1.70;;
9767;SDS011;4923;52.520;13.494;2023-07-02T01:04:36;2.07;;;2.00;;
9767;SDS011;4923;52.520;13.494;2023-07-02T01:07:23;1.30;;;1.30;;
9767;SDS011;4923;52.520;13.494;2023-07-02T01:10:10;1.40;;;1.40;;
9767;SDS011;4923;52.520;13.494;2023-07-02T01:12:57;2.40;;;1.60;;
9767;SDS011;4923;52.520;13.494;2023-07-02T01:15:47;2.10;;;2.00;;
9767;SDS011;4923;52.520;13.494;2023-07-02T01:18:35;1.47;;;1.47;;
9767;SDS011;4923;52.520;13.494;2023-07-02T01:21:25;3.30;;;2.03;;
9767;SDS011;4923;52.520;13.494;2023-07-02T01:24:12;2.43;;;2.33;;
9767;SDS011;4923;52.520;13.494;2023-07-02T01:26:59;2.20;;;2.10;;
9767;SDS011;4923;52.520;13.494;2023-07-02T01:29:50;5.27;;;2.47;;
9767;SDS011;4923;52.520;13.494;2023-07-02T01:32:37;2.27;;;2.17;;
9767;SDS011;4923;52.520;13.494;2023-07-02T01:35:25;3.17;;;2.33;;
9767;SDS011;4923;52.520;13.494;2023-07-02T01:38:13;2.33;;;2.23;;
9767;SDS011;4923;52.520;13.494;2023-07-02T01:41:00;3.37;;;3.07;;
9767;SDS011;4923;52.520;13.494;2023-07-02T01:43:46;5.73;;;3.23;;
9767;SDS011;4923;52.520;13.494;2023-07-02T01:46:33;2.87;;;2.77;;
9767;SDS011;4923;52.520;13.494;2023-07-02T01:49:21;2.80;;;2.70;;
9767;SDS011;4923;52.520;13.494;2023-07-02T01:52:08;3.87;;;2.87;;
9767;SDS011;4923;52.520;13.494;2023-07-02T01:54:56;4.87;;;2.07;;
9767;SDS011;4923;52.520;13.494;2023-07-02T01:57:43;2.53;;;2.43;;
9767;SDS011;4923;52.520;13.494;2023-07-02T02:00:30;2.83;;;2.73;;
9767;SDS011;4923;52.520;13.494;2023-07-02T02:03:17;3.13;;;2.97;;
9767;SDS011;4923;52.520;13.494;2023-07-02T02:06:04;3.47;;;3.37;;
9767;SDS011;4923;52.520;13.494;2023-07-02T02:08:51;3.37;;;3.10;;
9767;SDS011;4923;52.520;13.494;2023-07-02T02:11:40;4.50;;;3.40;;
9767;SDS011;4923;52.520;13.494;2023-07-02T02:14:29;5.73;;;3.80;;
9767;SDS011;4923;52.520;13.494;2023-07-02T02:17:15;4.33;;;3.90;;
9767;SDS011;4923;52.520;13.494;2023-07-02T02:20:03;4.47;;;4.17;;
9767;SDS011;4923;52.520;13.494;2023-07-02T02:22:52;4.50;;;4.10;;
9767;SDS011;4923;52.520;13.494;2023-07-02T02:25:39;9.63;;;3.70;;
9767;SDS011;4923;52.520;13.494;2023-07-02T02:28:27;3.73;;;3.63;;
9767;SDS011;4923;52.520;13.494;2023-07-02T02:31:14;4.97;;;3.93;;
9767;SDS011;4923;52.520;13.494;2023-07-02T02:34:01;4.07;;;3.60;;
9767;SDS011;4923;52.520;13.494;2023-07-02T02:36:48;4.77;;;3.40;;
9767;SDS011;4923;52.520;13.494;2023-07-02T02:39:35;3.77;;;3.67;;
9767;SDS011;4923;52.520;13.494;2023-07-02T02:42:22;4.93;;;3.80;;
9767;SDS011;4923;52.520;13.494;2023-07-02T02:45:10;10.50;;;4.00;;
9767;SDS011;4923;52.520;13.494;2023-07-02T02:47:57;3.27;;;3.17;;
9767;SDS011;4923;52.520;13.494;2023-07-02T02:50:44;4.37;;;3.40;;
9767;SDS011;4923;52.520;13.494;2023-07-02T02:53:31;3.60;;;3.40;;
9767;SDS011;4923;52.520;13.494;2023-07-02T02:56:18;3.70;;;3.50;;
9767;SDS011;4923;52.520;13.494;2023-07-02T02:59:05;3.60;;;3.30;;
9767;SDS011;4923;52.520;13.494;2023-07-02T03:01:53;7.43;;;2.90;;
9767;SDS011;4923;52.520;13.494;2023-07-02T03:04:40;3.10;;;3.00;;
9767;SDS011;4923;52.520;13.494;2023-07-02T03:07:29;3.40;;;3.17;;
9767;SDS011;4923;52.520;13.494;2023-07-02T03:10:17;3.10;;;2.77;;
9767;SDS011;4923;52.520;13.494;2023-07-02T03:13:04;4.00;;;3.40;;
9767;SDS011;4923;52.520;13.494;2023-07-02T03:15:51;3.20;;;3.10;;
9767;SDS011;4923;52.520;13.494;2023-07-02T03:18:39;6.10;;;2.70;;
9767;SDS011;4923;52.520;13.494;2023-07-02T03:21:28;6.77;;;2.67;;
9767;SDS011;4923;52.520;13.494;2023-07-02T03:24:15;4.00;;;2.77;;
9767;SDS011;4923;52.520;13.494;2023-07-02T03:27:02;2.90;;;2.70;;
9767;SDS011;4923;52.520;13.494;2023-07-02T03:29:49;3.87;;;3.50;;
9767;SDS011;4923;52.520;13.494;2023-07-02T03:32:37;3.00;;;2.70;;
9767;SDS011;4923;52.520;13.494;2023-07-02T03:35:26;2.67;;;2.40;;
9767;SDS011;4923;52.520;13.494;2023-07-02T03:38:12;8.00;;;2.73;;
9767;SDS011;4923;52.520;13.494;2023-07-02T03:41:00;3.03;;;2.93;;
9767;SDS011;4923;52.520;13.494;2023-07-02T03:43:47;2.50;;;2.37;;
9767;SDS011;4923;52.520;13.494;2023-07-02T03:46:34;5.23;;;1.80;;
9767;SDS011;4923;52.520;13.494;2023-07-02T03:49:21;4.10;;;2.33;;
9767;SDS011;4923;52.520;13.494;2023-07-02T03:52:09;5.20;;;2.37;;
9767;SDS011;4923;52.520;13.494;2023-07-02T03:54:56;5.43;;;2.07;;
9767;SDS011;4923;52.520;13.494;2023-07-02T03:57:43;2.90;;;2.27;;
9767;SDS011;4923;52.520;13.494;2023-07-02T04:00:30;2.13;;;1.90;;
9767;SDS011;4923;52.520;13.494;2023-07-02T04:03:17;2.30;;;2.00;;
9767;SDS011;4923;52.520;13.494;2023-07-02T04:06:04;2.70;;;1.70;;
9767;SDS011;4923;52.520;13.494;2023-07-02T04:08:53;2.67;;;1.90;;
9767;SDS011;4923;52.520;13.494;2023-07-02T04:11:39;2.60;;;2.40;;
9767;SDS011;4923;52.520;13.494;2023-07-02T04:14:26;1.90;;;1.63;;
9767;SDS011;4923;52.520;13.494;2023-07-02T04:17:13;4.00;;;2.10;;
9767;SDS011;4923;52.520;13.494;2023-07-02T04:20:01;4.73;;;2.37;;
9767;SDS011;4923;52.520;13.494;2023-07-02T04:22:49;2.10;;;1.83;;
9767;SDS011;4923;52.520;13.494;2023-07-02T04:25:37;2.10;;;1.70;;
9767;SDS011;4923;52.520;13.494;2023-07-02T04:28:24;2.67;;;1.73;;
9767;SDS011;4923;52.520;13.494;2023-07-02T04:31:11;3.03;;;1.50;;
9767;SDS011;4923;52.520;13.494;2023-07-02T04:33:57;2.43;;;2.20;;
9767;SDS011;4923;52.520;13.494;2023-07-02T04:36:45;1.87;;;1.77;;
9767;SDS011;4923;52.520;13.494;2023-07-02T04:39:32;2.00;;;1.83;;
9767;SDS011;4923;52.520;13.494;2023-07-02T04:42:20;1.23;;;1.13;;
9767;SDS011;4923;52.520;13.494;2023-07-02T04:45:07;4.50;;;1.50;;
9767;SDS011;4923;52.520;13.494;2023-07-02T04:47:54;6.23;;;1.87;;
9767;SDS011;4923;52.520;13.494;2023-07-02T04:50:41;1.70;;;1.60;;
9767;SDS011;4923;52.520;13.494;2023-07-02T04:53:28;1.47;;;1.47;;
9767;SDS011;4923;52.520;13.494;2023-07-02T04:56:15;2.13;;;1.73;;
9767;SDS011;4923;52.520;13.494;2023-07-02T04:59:03;3.77;;;1.73;;
9767;SDS011;4923;52.520;13.494;2023-07-02T05:01:50;4.57;;;1.57;;
9767;SDS011;4923;52.520;13.494;2023-07-02T05:04:37;3.10;;;1.17;;
9767;SDS011;4923;52.520;13.494;2023-07-02T05:07:24;2.60;;;1.20;;
9767;SDS011;4923;52.520;13.494;2023-07-02T05:10:11;2.10;;;1.40;;
9767;SDS011;4923;52.520;13.494;2023-07-02T05:12:58;1.30;;;1.20;;
9767;SDS011;4923;52.520;13.494;2023-07-02T05:15:46;1.37;;;1.23;;
9767;SDS011;4923;52.520;13.494;2023-07-02T05:18:34;1.23;;;0.93;;
9767;SDS011;4923;52.520;13.494;2023-07-02T05:21:21;1.33;;;0.97;;
9767;SDS011;4923;52.520;13.494;2023-07-02T05:24:08;2.93;;;1.30;;
9767;SDS011;4923;52.520;13.494;2023-07-02T05:26:55;0.90;;;0.90;;
9767;SDS011;4923;52.520;13.494;2023-07-02T05:29:42;2.00;;;1.33;;
9767;SDS011;4923;52.520;13.494;2023-07-02T05:32:30;3.37;;;1.20;;
9767;SDS011;4923;52.520;13.494;2023-07-02T05:35:19;1.20;;;1.20;;
9767;SDS011;4923;52.520;13.494;2023-07-02T05:38:06;1.90;;;1.23;;
9767;SDS011;4923;52.520;13.494;2023-07-02T05:40:53;1.10;;;1.10;;
9767;SDS011;4923;52.520;13.494;2023-07-02T05:43:40;1.63;;;1.47;;
9767;SDS011;4923;52.520;13.494;2023-07-02T05:46:27;2.50;;;1.20;;
9767;SDS011;4923;52.520;13.494;2023-07-02T05:49:15;2.50;;;1.77;;
9767;SDS011;4923;52.520;13.494;2023-07-02T05:52:02;4.87;;;1.37;;
9767;SDS011;4923;52.520;13.494;2023-07-02T05:54:49;3.63;;;2.10;;
9767;SDS011;4923;52.520;13.494;2023-07-02T05:57:36;6.00;;;1.40;;
9767;SDS011;4923;52.520;13.494;2023-07-02T06:00:23;3.93;;;1.20;;
9767;SDS011;4923;52.520;13.494;2023-07-02T06:03:10;6.63;;;2.07;;
9767;SDS011;4923;52.520;13.494;2023-07-02T06:06:05;3.27;;;1.57;;
9767;SDS011;4923;52.520;13.494;2023-07-02T06:08:52;1.00;;;1.00;;
9767;SDS011;4923;52.520;13.494;2023-07-02T06:11:39;5.23;;;1.33;;
9767;SDS011;4923;52.520;13.494;2023-07-02T06:14:26;1.33;;;1.33;;
9767;SDS011;4923;52.520;13.494;2023-07-02T06:17:13;2.00;;;1.07;;
9767;SDS011;4923;52.520;13.494;2023-07-02T06:20:01;6.43;;;1.33;;
9767;SDS011;4923;52.520;13.494;2023-07-02T06:22:51;5.30;;;1.60;;
9767;SDS011;4923;52.520;13.494;2023-07-02T06:25:38;1.90;;;1.20;;
9767;SDS011;4923;52.520;13.494;2023-07-02T06:28:25;1.80;;;1.20;;
9767;SDS011;4923;52.520;13.494;2023-07-02T06:31:12;0.90;;;0.90;;
9767;SDS011;4923;52.520;13.494;2023-07-02T06:33:59;2.23;;;1.57;;
9767;SDS011;4923;52.520;13.494;2023-07-02T06:36:45;1.70;;;1.20;;
9767;SDS011;4923;52.520;13.494;2023-07-02T06:39:35;1.67;;;1.57;;
9767;SDS011;4923;52.520;13.494;2023-07-02T06:42:23;2.97;;;1.70;;
9767;SDS011;4923;52.520;13.494;2023-07-02T06:45:10;2.87;;;1.30;;
9767;SDS011;4923;52.520;13.494;2023-07-02T06:47:57;2.50;;;1.80;;
9767;SDS011;4923;52.520;13.494;2023-07-02T06:50:44;2.00;;;1.23;;
9767;SDS011;4923;52.520;13.494;2023-07-02T06:53:31;1.60;;;1.50;;
9767;SDS011;4923;52.520;13.494;2023-07-02T06:56:19;3.03;;;1.30;;
9767;SDS011;4923;52.520;13.494;2023-07-02T06:59:06;3.90;;;1.97;;
9767;SDS011;4923;52.520;13.494;2023-07-02T07:01:53;1.27;;;1.20;;
9767;SDS011;4923;52.520;13.494;2023-07-02T07:04:40;3.53;;;1.63;;
9767;SDS011;4923;52.520;13.494;2023-07-02T07:07:27;1.30;;;1.13;;
9767;SDS011;4923;52.520;13.494;2023-07-02T07:10:14;2.37;;;1.97;;
9767;SDS011;4923;52.520;13.494;2023-07-02T07:13:02;1.73;;;1.20;;
9767;SDS011;4923;52.520;13.494;2023-07-02T07:15:50;1.43;;;1.00;;
9767;SDS011;4923;52.520;13.494;2023-07-02T07:18:36;3.13;;;1.67;;
9767;SDS011;4923;52.520;13.494;2023-07-02T07:21:23;2.13;;;1.40;;
9767;SDS011;4923;52.520;13.494;2023-07-02T07:24:10;6.30;;;1.80;;
9767;SDS011;4923;52.520;13.494;2023-07-02T07:26:57;5.03;;;1.80;;
9767;SDS011;4923;52.520;13.494;2023-07-02T07:29:45;1.50;;;1.27;;
9767;SDS011;4923;52.520;13.494;2023-07-02T07:32:32;2.23;;;1.70;;
9767;SDS011;4923;52.520;13.494;2023-07-02T07:35:19;5.43;;;1.60;;
9767;SDS011;4923;52.520;13.494;2023-07-02T07:38:06;2.33;;;1.40;;
9767;SDS011;4923;52.520;13.494;2023-07-02T07:40:53;10.23;;;1.60;;
9767;SDS011;4923;52.520;13.494;2023-07-02T07:43:40;2.47;;;1.63;;
9767;SDS011;4923;52.520;13.494;2023-07-02T07:46:28;1.80;;;1.70;;
9767;SDS011;4923;52.520;13.494;2023-07-02T07:49:15;4.50;;;1.77;;
9767;SDS011;4923;52.520;13.494;2023-07-02T07:52:02;5.50;;;1.70;;
9767;SDS011;4923;52.520;13.494;2023-07-02T07:54:52;4.33;;;1.50;;
9767;SDS011;4923;52.520;13.494;2023-07-02T07:57:38;2.10;;;1.80;;
9767;SDS011;4923;52.520;13.494;2023-07-02T08:00:25;1.70;;;1.60;;
9767;SDS011;4923;52.520;13.494;2023-07-02T08:03:14;3.33;;;1.80;;
9767;SDS011;4923;52.520;13.494;2023-07-02T08:06:00;2.47;;;1.37;;
9767;SDS011;4923;52.520;13.494;2023-07-02T08:08:47;1.00;;;1.00;;
9767;SDS011;4923;52.520;13.494;2023-07-02T08:11:34;1.80;;;1.67;;
9767;SDS011;4923;52.520;13.494;2023-07-02T08:14:21;3.63;;;1.43;;
9767;SDS011;4923;52.520;13.494;2023-07-02T08:17:08;2.80;;;1.73;;
9767;SDS011;4923;52.520;13.494;2023-07-02T08:19:56;2.63;;;1.20;;
9767;SDS011;4923;52.520;13.494;2023-07-02T08:22:43;2.50;;;1.83;;
9767;SDS011;4923;52.520;13.494;2023-07-02T08:25:30;2.03;;;1.40;;
9767;SDS011;4923;52.520;13.494;2023-07-02T08:28:17;1.70;;;1.60;;
9767;SDS011;4923;52.520;13.494;2023-07-02T08:31:04;2.43;;;1.60;;
9767;SDS011;4923;52.520;13.494;2023-07-02T08:33:52;1.33;;;1.33;;
9767;SDS011;4923;52.520;13.494;2023-07-02T08:36:40;4.17;;;1.90;;
9767;SDS011;4923;52.520;13.494;2023-07-02T08:39:28;1.67;;;1.57;;
9767;SDS011;4923;52.520;13.494;2023-07-02T08:42:16;5.30;;;2.00;;
9767;SDS011;4923;52.520;13.494;2023-07-02T08:45:03;2.00;;;1.50;;
9767;SDS011;4923;52.520;13.494;2023-07-02T08:47:51;2.10;;;1.67;;
9767;SDS011;4923;52.520;13.494;2023-07-02T08:50:42;5.00;;;1.60;;
9767;SDS011;4923;52.520;13.494;2023-07-02T08:53:30;1.70;;;1.50;;
9767;SDS011;4923;52.520;13.494;2023-07-02T08:56:19;2.67;;;1.60;;
9767;SDS011;4923;52.520;13.494;2023-07-02T08:59:06;2.40;;;1.70;;
9767;SDS011;4923;52.520;13.494;2023-07-02T09:01:53;5.70;;;1.60;;
9767;SDS011;4923;52.520;13.494;2023-07-02T09:04:40;1.70;;;1.60;;
9767;SDS011;4923;52.520;13.494;2023-07-02T09:07:27;6.43;;;2.10;;
9767;SDS011;4923;52.520;13.494;2023-07-02T09:10:26;2.70;;;2.50;;
9767;SDS011;4923;52.520;13.494;2023-07-02T09:13:14;6.73;;;2.57;;
9767;SDS011;4923;52.520;13.494;2023-07-02T09:16:02;8.50;;;2.70;;
9767;SDS011;4923;52.520;13.494;2023-07-02T09:18:56;3.33;;;2.77;;
9767;SDS011;4923;52.520;13.494;2023-07-02T09:21:44;4.03;;;2.30;;
9767;SDS011;4923;52.520;13.494;2023-07-02T09:24:31;2.53;;;2.00;;
9767;SDS011;4923;52.520;13.494;2023-07-02T09:27:20;6.03;;;2.60;;
9767;SDS011;4923;52.520;13.494;2023-07-02T09:30:08;2.83;;;2.60;;
9767;SDS011;4923;52.520;13.494;2023-07-02T09:33:05;4.63;;;2.90;;
9767;SDS011;4923;52.520;13.494;2023-07-02T09:35:53;3.90;;;2.63;;
9767;SDS011;4923;52.520;13.494;2023-07-02T09:38:40;3.97;;;2.80;;
9767;SDS011;4923;52.520;13.494;2023-07-02T09:41:28;4.30;;;3.17;;
9767;SDS011;4923;52.520;13.494;2023-07-02T09:44:16;7.17;;;3.53;;
9767;SDS011;4923;52.520;13.494;2023-07-02T09:47:04;4.00;;;2.37;;
9767;SDS011;4923;52.520;13.494;2023-07-02T09:49:54;6.43;;;3.47;;
9767;SDS011;4923;52.520;13.494;2023-07-02T09:52:44;6.40;;;3.73;;
9767;SDS011;4923;52.520;13.494;2023-07-02T09:55:31;5.00;;;3.57;;
9767;SDS011;4923;52.520;13.494;2023-07-02T09:58:18;15.00;;;3.57;;
9767;SDS011;4923;52.520;13.494;2023-07-02T10:01:07;10.50;;;3.80;;
9767;SDS011;4923;52.520;13.494;2023-07-02T10:03:53;6.47;;;3.90;;
9767;SDS011;4923;52.520;13.494;2023-07-02T10:06:47;10.57;;;3.70;;
9767;SDS011;4923;52.520;13.494;2023-07-02T10:09:36;10.33;;;3.90;;
9767;SDS011;4923;52.520;13.494;2023-07-02T10:12:24;8.80;;;3.40;;
9767;SDS011;4923;52.520;13.494;2023-07-02T10:15:12;8.20;;;4.07;;
9767;SDS011;4923;52.520;13.494;2023-07-02T10:18:11;11.90;;;4.00;;
9767;SDS011;4923;52.520;13.494;2023-07-02T10:20:58;9.77;;;4.37;;
9767;SDS011;4923;52.520;13.494;2023-07-02T10:23:45;7.97;;;3.80;;
9767;SDS011;4923;52.520;13.494;2023-07-02T10:26:32;7.63;;;3.60;;
9767;SDS011;4923;52.520;13.494;2023-07-02T10:29:20;10.03;;;3.57;;
9767;SDS011;4923;52.520;13.494;2023-07-02T10:32:08;7.03;;;3.90;;
9767;SDS011;4923;52.520;13.494;2023-07-02T10:34:56;7.30;;;4.07;;
9767;SDS011;4923;52.520;13.494;2023-07-02T10:37:44;11.60;;;4.33;;
9767;SDS011;4923;52.520;13.494;2023-07-02T10:40:31;6.70;;;3.77;;
9767;SDS011;4923;52.520;13.494;2023-07-02T10:43:23;5.83;;;3.60;;
9767;SDS011;4923;52.520;13.494;2023-07-02T10:46:10;5.00;;;4.03;;
9767;SDS011;4923;52.520;13.494;2023-07-02T10:49:05;8.97;;;4.30;;
9767;SDS011;4923;52.520;13.494;2023-07-02T10:51:58;16.43;;;4.53;;
9767;SDS011;4923;52.520;13.494;2023-07-02T10:54:46;12.60;;;4.27;;
9767;SDS011;4923;52.520;13.494;2023-07-02T10:57:33;8.53;;;3.90;;
9767;SDS011;4923;52.520;13.494;2023-07-02T11:00:20;13.17;;;4.60;;
9767;SDS011;4923;52.520;13.494;2023-07-02T11:03:15;13.53;;;4.37;;
9767;SDS011;4923;52.520;13.494;2023-07-02T11:06:03;5.33;;;3.90;;
9767;SDS011;4923;52.520;13.494;2023-07-02T11:08:51;7.10;;;4.10;;
9767;SDS011;4923;52.520;13.494;2023-07-02T11:11:48;7.50;;;4.33;;
9767;SDS011;4923;52.520;13.494;2023-07-02T11:14:37;4.57;;;4.10;;
9767;SDS011;4923;52.520;13.494;2023-07-02T11:17:25;6.37;;;4.03;;
9767;SDS011;4923;52.520;13.494;2023-07-02T11:20:12;13.93;;;4.47;;
9767;SDS011;4923;52.520;13.494;2023-07-02T11:23:00;10.30;;;4.67;;
9767;SDS011;4923;52.520;13.494;2023-07-02T11:25:57;11.43;;;4.60;;
9767;SDS011;4923;52.520;13.494;2023-07-02T11:28:49;11.40;;;5.30;;
9767;SDS011;4923;52.520;13.494;2023-07-02T11:31:36;13.87;;;5.20;;
9767;SDS011;4923;52.520;13.494;2023-07-02T11:34:23;12.80;;;5.47;;
9767;SDS011;4923;52.520;13.494;2023-07-02T11:37:10;17.07;;;4.90;;
9767;SDS011;4923;52.520;13.494;2023-07-02T11:39:57;5.80;;;4.50;;
9767;SDS011;4923;52.520;13.494;2023-07-02T11:42:45;6.87;;;4.60;;
9767;SDS011;4923;52.520;13.494;2023-07-02T11:45:32;8.00;;;5.40;;
9767;SDS011;4923;52.520;13.494;2023-07-02T11:48:19;18.50;;;4.80;;
9767;SDS011;4923;52.520;13.494;2023-07-02T11:51:06;13.97;;;4.37;;
9767;SDS011;4923;52.520;13.494;2023-07-02T11:53:53;11.10;;;4.60;;
9767;SDS011;4923;52.520;13.494;2023-07-02T11:56:40;11.40;;;4.83;;
9767;SDS011;4923;52.520;13.494;2023-07-02T11:59:29;10.17;;;4.73;;
9767;SDS011;4923;52.520;13.494;2023-07-02T12:02:16;10.27;;;4.43;;
9767;SDS011;4923;52.520;13.494;2023-07-02T12:05:03;5.90;;;3.93;;
9767;SDS011;4923;52.520;13.494;2023-07-02T12:07:50;6.67;;;4.23;;
9767;SDS011;4923;52.520;13.494;2023-07-02T12:10:38;10.07;;;4.27;;
9767;SDS011;4923;52.520;13.494;2023-07-02T12:13:24;8.70;;;5.17;;
9767;SDS011;4923;52.520;13.494;2023-07-02T12:16:13;6.57;;;4.73;;
9767;SDS011;4923;52.520;13.494;2023-07-02T12:19:00;11.40;;;4.90;;
9767;SDS011;4923;52.520;13.494;2023-07-02T12:21:47;11.07;;;3.83;;
9767;SDS011;4923;52.520;13.494;2023-07-02T12:24:34;17.40;;;4.10;;
9767;SDS011;4923;52.520;13.494;2023-07-02T12:27:21;10.80;;;4.37;;
9767;SDS011;4923;52.520;13.494;2023-07-02T12:30:08;15.40;;;5.30;;
9767;SDS011;4923;52.520;13.494;2023-07-02T12:32:56;16.83;;;5.30;;
9767;SDS011;4923;52.520;13.494;2023-07-02T12:35:44;11.50;;;4.50;;
9767;SDS011;4923;52.520;13.494;2023-07-02T12:38:30;9.67;;;4.57;;
9767;SDS011;4923;52.520;13.494;2023-07-02T12:41:17;12.97;;;5.27;;
9767;SDS011;4923;52.520;13.494;2023-07-02T12:44:04;15.27;;;5.57;;
9767;SDS011;4923;52.520;13.494;2023-07-02T12:46:51;11.93;;;5.00;;
9767;SDS011;4923;52.520;13.494;2023-07-02T12:49:39;16.03;;;4.57;;
9767;SDS011;4923;52.520;13.494;2023-07-02T12:52:26;5.97;;;3.70;;
9767;SDS011;4923;52.520;13.494;2023-07-02T12:55:14;8.30;;;4.67;;
9767;SDS011;4923;52.520;13.494;2023-07-02T12:58:01;11.33;;;4.07;;
9767;SDS011;4923;52.520;13.494;2023-07-02T13:00:48;15.23;;;5.17;;
9767;SDS011;4923;52.520;13.494;2023-07-02T13:03:35;7.67;;;5.20;;
9767;SDS011;4923;52.520;13.494;2023-07-02T13:06:23;10.37;;;4.70;;
9767;SDS011;4923;52.520;13.494;2023-07-02T13:09:10;8.33;;;4.60;;
9767;SDS011;4923;52.520;13.494;2023-07-02T13:11:56;21.00;;;5.50;;
9767;SDS011;4923;52.520;13.494;2023-07-02T13:14:44;10.67;;;4.90;;
9767;SDS011;4923;52.520;13.494;2023-07-02T13:17:30;11.20;;;5.10;;
9767;SDS011;4923;52.520;13.494;2023-07-02T13:20:17;12.37;;;4.93;;
9767;SDS011;4923;52.520;13.494;2023-07-02T13:23:05;10.27;;;5.13;;
9767;SDS011;4923;52.520;13.494;2023-07-02T13:25:52;8.83;;;4.63;;
9767;SDS011;4923;52.520;13.494;2023-07-02T13:28:39;8.67;;;5.13;;
9767;SDS011;4923;52.520;13.494;2023-07-02T13:31:26;8.87;;;4.40;;
9767;SDS011;4923;52.520;13.494;2023-07-02T13:34:13;9.67;;;4.60;;
9767;SDS011;4923;52.520;13.494;2023-07-02T13:37:00;6.83;;;4.37;;
9767;SDS011;4923;52.520;13.494;2023-07-02T13:39:49;10.30;;;4.70;;
9767;SDS011;4923;52.520;13.494;2023-07-02T13:42:36;10.53;;;4.13;;
9767;SDS011;4923;52.520;13.494;2023-07-02T13:45:23;17.43;;;5.03;;
9767;SDS011;4923;52.520;13.494;2023-07-02T13:48:10;7.63;;;4.90;;
9767;SDS011;4923;52.520;13.494;2023-07-02T13:50:57;23.90;;;5.60;;
9767;SDS011;4923;52.520;13.494;2023-07-02T13:53:44;12.10;;;5.60;;
9767;SDS011;4923;52.520;13.494;2023-07-02T13:56:32;4.70;;;3.63;;
9767;SDS011;4923;52.520;13.494;2023-07-02T13:59:20;8.80;;;4.93;;
9767;SDS011;4923;52.520;13.494;2023-07-02T14:02:07;12.93;;;5.53;;
9767;SDS011;4923;52.520;13.494;2023-07-02T14:04:54;10.53;;;5.73;;
9767;SDS011;4923;52.520;13.494;2023-07-02T14:07:41;9.20;;;4.50;;
9767;SDS011;4923;52.520;13.494;2023-07-02T14:10:28;10.80;;;5.47;;
9767;SDS011;4923;52.520;13.494;2023-07-02T14:13:14;20.90;;;5.03;;
9767;SDS011;4923;52.520;13.494;2023-07-02T14:16:03;16.73;;;4.87;;
9767;SDS011;4923;52.520;13.494;2023-07-02T14:18:50;11.50;;;5.10;;
9767;SDS011;4923;52.520;13.494;2023-07-02T14:21:37;10.27;;;4.63;;
9767;SDS011;4923;52.520;13.494;2023-07-02T14:24:24;10.80;;;4.63;;
9767;SDS011;4923;52.520;13.494;2023-07-02T14:27:11;15.23;;;4.73;;
9767;SDS011;4923;52.520;13.494;2023-07-02T14:29:58;10.03;;;4.80;;
9767;SDS011;4923;52.520;13.494;2023-07-02T14:32:47;13.87;;;5.77;;
9767;SDS011;4923;52.520;13.494;2023-07-02T14:35:34;15.63;;;5.10;;
9767;SDS011;4923;52.520;13.494;2023-07-02T14:38:21;15.20;;;5.30;;
9767;SDS011;4923;52.520;13.494;2023-07-02T14:41:08;7.20;;;4.73;;
9767;SDS011;4923;52.520;13.494;2023-07-02T14:43:55;12.40;;;5.43;;
9767;SDS011;4923;52.520;13.494;2023-07-02T14:46:41;9.67;;;5.20;;
9767;SDS011;4923;52.520;13.494;2023-07-02T14:49:30;8.43;;;4.37;;
9767;SDS011;4923;52.520;13.494;2023-07-02T14:52:17;13.80;;;4.60;;
9767;SDS011;4923;52.520;13.494;2023-07-02T14:55:04;16.50;;;4.33;;
9767;SDS011;4923;52.520;13.494;2023-07-02T14:57:52;10.67;;;5.10;;
9767;SDS011;4923;52.520;13.494;2023-07-02T15:00:42;10.73;;;4.97;;
9767;SDS011;4923;52.520;13.494;2023-07-02T15:03:29;9.53;;;5.10;;
9767;SDS011;4923;52.520;13.494;2023-07-02T15:06:18;8.73;;;4.90;;
9767;SDS011;4923;52.520;13.494;2023-07-02T15:09:05;8.43;;;4.10;;
9767;SDS011;4923;52.520;13.494;2023-07-02T15:11:52;11.37;;;4.47;;
9767;SDS011;4923;52.520;13.494;2023-07-02T15:14:38;6.60;;;4.20;;
9767;SDS011;4923;52.520;13.494;2023-07-02T15:17:25;8.70;;;4.67;;
9767;SDS011;4923;52.520;13.494;2023-07-02T15:20:13;8.27;;;4.57;;
9767;SDS011;4923;52.520;13.494;2023-07-02T15:23:01;8.53;;;4.23;;
9767;SDS011;4923;52.520;13.494;2023-07-02T15:25:52;10.60;;;4.40;;
9767;SDS011;4923;52.520;13.494;2023-07-02T15:28:40;17.43;;;4.70;;
9767;SDS011;4923;52.520;13.494;2023-07-02T15:31:27;14.77;;;4.37;;
9767;SDS011;4923;52.520;13.494;2023-07-02T15:34:14;5.97;;;4.17;;
9767;SDS011;4923;52.520;13.494;2023-07-02T15:37:04;8.60;;;4.23;;
9767;SDS011;4923;52.520;13.494;2023-07-02T15:39:52;13.83;;;4.80;;
9767;SDS011;4923;52.520;13.494;2023-07-02T15:42:39;15.33;;;4.43;;
9767;SDS011;4923;52.520;13.494;2023-07-02T15:45:26;5.90;;;3.50;;
9767;SDS011;4923;52.520;13.494;2023-07-02T15:48:13;8.60;;;4.20;;
9767;SDS011;4923;52.520;13.494;2023-07-02T15:51:01;9.63;;;4.20;;
9767;SDS011;4923;52.520;13.494;2023-07-02T15:53:49;6.30;;;3.60;;
9767;SDS011;4923;52.520;13.494;2023-07-02T15:56:38;9.77;;;4.40;;
9767;SDS011;4923;52.520;13.494;2023-07-02T15:59:25;8.77;;;3.87;;
9767;SDS011;4923;52.520;13.494;2023-07-02T16:02:12;9.17;;;4.00;;
9767;SDS011;4923;52.520;13.494;2023-07-02T16:04:59;7.73;;;3.97;;
9767;SDS011;4923;52.520;13.494;2023-07-02T16:07:45;10.20;;;4.10;;
9767;SDS011;4923;52.520;13.494;2023-07-02T16:10:32;14.53;;;4.67;;
9767;SDS011;4923;52.520;13.494;2023-07-02T16:13:20;9.83;;;4.20;;
9767;SDS011;4923;52.520;13.494;2023-07-02T16:16:07;8.13;;;3.90;;
9767;SDS011;4923;52.520;13.494;2023-07-02T16:18:55;8.37;;;3.83;;
9767;SDS011;4923;52.520;13.494;2023-07-02T16:21:42;13.30;;;4.20;;
9767;SDS011;4923;52.520;13.494;2023-07-02T16:24:30;3.60;;;3.30;;
9767;SDS011;4923;52.520;13.494;2023-07-02T16:27:19;10.70;;;3.83;;
9767;SDS011;4923;52.520;13.494;2023-07-02T16:30:08;13.23;;;3.83;;
9767;SDS011;4923;52.520;13.494;2023-07-02T16:32:56;4.17;;;3.10;;
9767;SDS011;4923;52.520;13.494;2023-07-02T16:35:43;16.87;;;5.83;;
9767;SDS011;4923;52.520;13.494;2023-07-02T16:38:30;7.03;;;4.03;;
9767;SDS011;4923;52.520;13.494;2023-07-02T16:41:17;11.30;;;4.17;;
9767;SDS011;4923;52.520;13.494;2023-07-02T16:44:04;7.43;;;3.97;;
9767;SDS011;4923;52.520;13.494;2023-07-02T16:46:53;3.90;;;3.50;;
9767;SDS011;4923;52.520;13.494;2023-07-02T16:49:41;4.27;;;3.17;;
9767;SDS011;4923;52.520;13.494;2023-07-02T16:52:29;10.27;;;4.00;;
9767;SDS011;4923;52.520;13.494;2023-07-02T16:55:16;4.30;;;3.10;;
9767;SDS011;4923;52.520;13.494;2023-07-02T16:58:03;12.33;;;4.03;;
9767;SDS011;4923;52.520;13.494;2023-07-02T17:00:51;6.50;;;3.90;;